createdAt,value
2023-03-26T00:00:58.596Z,51.2
2023-03-26T00:02:42.296Z,51.3
2023-03-26T00:04:26.019Z,51.3
2023-03-26T00:06:09.716Z,51.1
2023-03-26T00:07:53.425Z,51.1
2023-03-26T00:09:37.102Z,51.2
2023-03-26T00:11:20.855Z,51.2
2023-03-26T00:13:04.510Z,51.1
2023-03-26T00:14:48.200Z,51.1
2023-03-26T00:16:31.909Z,51.1
2023-03-26T00:18:15.675Z,51.1
2023-03-26T00:19:59.311Z,51.1
2023-03-26T00:21:43.079Z,51.1
2023-03-26T00:23:26.705Z,51.1
2023-03-26T00:25:10.459Z,51
2023-03-26T00:26:54.207Z,51
2023-03-26T00:28:37.814Z,51
2023-03-26T00:30:21.569Z,51.1
2023-03-26T00:32:05.219Z,51
2023-03-26T00:33:49.020Z,51.1
2023-03-26T00:35:32.675Z,51.1
2023-03-26T00:37:16.308Z,51.1
2023-03-26T00:39:00.163Z,51
2023-03-26T00:40:43.730Z,51
2023-03-26T00:42:27.428Z,51.1
2023-03-26T00:44:11.107Z,51
2023-03-26T00:45:54.833Z,51
2023-03-26T00:47:38.542Z,51
2023-03-26T00:49:22.370Z,51
2023-03-26T00:51:05.955Z,51.1
2023-03-26T00:52:49.642Z,51
2023-03-26T00:54:33.356Z,51
2023-03-26T00:56:17.061Z,51
2023-03-26T00:58:00.725Z,51.1
2023-03-26T00:59:44.488Z,51
2023-03-26T01:01:28.141Z,51
2023-03-26T01:03:11.889Z,51
2023-03-26T01:04:55.539Z,51
2023-03-26T01:06:39.310Z,51
2023-03-26T01:08:22.956Z,51
2023-03-26T01:10:06.800Z,51
2023-03-26T01:11:50.437Z,51
2023-03-26T01:13:34.047Z,51
2023-03-26T01:15:17.808Z,51
2023-03-26T01:17:01.653Z,51
2023-03-26T01:18:45.287Z,51
2023-03-26T01:20:28.967Z,51
2023-03-26T01:22:12.659Z,51
2023-03-26T01:23:56.365Z,51
2023-03-26T01:25:40.053Z,51
2023-03-26T01:27:23.757Z,51
2023-03-26T01:29:07.394Z,50.9
2023-03-26T01:30:51.120Z,50.9
2023-03-26T01:32:34.792Z,50.9
2023-03-26T01:34:18.517Z,50.9
2023-03-26T01:36:02.192Z,50.9
2023-03-26T01:37:45.890Z,50.9
2023-03-26T01:39:29.721Z,50.9
2023-03-26T01:41:13.302Z,50.9
2023-03-26T01:42:57.113Z,50.9
2023-03-26T01:44:40.708Z,51
2023-03-26T01:46:24.446Z,50.9
2023-03-26T01:48:08.189Z,50.9
2023-03-26T01:49:51.938Z,50.9
2023-03-26T01:51:35.512Z,51
2023-03-26T01:53:19.285Z,50.9
2023-03-26T01:55:02.955Z,50.9
2023-03-26T01:56:46.632Z,50.8
2023-03-26T01:58:30.337Z,50.8
2023-03-26T02:00:14.013Z,50.8
2023-03-26T02:01:57.736Z,50.9
2023-03-26T02:03:41.428Z,50.8
2023-03-26T02:05:25.143Z,50.8
2023-03-26T02:07:08.847Z,50.8
2023-03-26T02:08:52.544Z,50.8
2023-03-26T02:10:36.308Z,50.8
2023-03-26T02:12:19.934Z,50.8
2023-03-26T02:14:03.642Z,50.9
2023-03-26T02:15:47.387Z,50.8
2023-03-26T02:17:31.070Z,50.8
2023-03-26T02:19:14.758Z,50.7
2023-03-26T02:20:58.437Z,50.7
2023-03-26T02:22:42.156Z,50.7
2023-03-26T02:24:25.857Z,50.7
2023-03-26T02:26:09.561Z,50.7
2023-03-26T02:27:53.235Z,50.7
2023-03-26T02:29:36.951Z,50.7
2023-03-26T02:31:20.654Z,50.7
2023-03-26T02:33:04.351Z,50.8
2023-03-26T02:34:48.056Z,50.7
2023-03-26T02:36:31.806Z,50.6
2023-03-26T02:38:15.458Z,50.7
2023-03-26T02:39:59.155Z,50.7
2023-03-26T02:41:42.857Z,50.7
2023-03-26T02:43:26.590Z,50.6
2023-03-26T02:45:10.307Z,50.6
2023-03-26T02:46:54.000Z,50.5
2023-03-26T02:48:37.654Z,50.6
2023-03-26T02:50:21.348Z,50.6
2023-03-26T02:52:05.063Z,50.5
2023-03-26T02:53:48.761Z,50.6
2023-03-26T02:55:32.452Z,50.5
2023-03-26T02:57:16.160Z,50.5
2023-03-26T02:58:59.873Z,50.6
2023-03-26T03:00:43.571Z,50.5
2023-03-26T03:02:27.276Z,50.5
2023-03-26T03:04:10.965Z,50.5
2023-03-26T03:05:54.724Z,50.5
2023-03-26T03:07:38.374Z,50.5
2023-03-26T03:09:22.096Z,50.5
2023-03-26T03:11:05.814Z,50.6
2023-03-26T03:12:49.494Z,50.5
2023-03-26T03:14:33.187Z,50.4
2023-03-26T03:16:16.903Z,50.5
2023-03-26T03:18:00.589Z,50.5
2023-03-26T03:19:44.272Z,50.5
2023-03-26T03:21:27.999Z,50.5
2023-03-26T03:23:11.698Z,50.5
2023-03-26T03:24:55.389Z,50.5
2023-03-26T03:26:39.118Z,50.5
2023-03-26T03:28:22.792Z,50.5
2023-03-26T03:30:06.515Z,50.5
2023-03-26T03:31:50.184Z,50.5
2023-03-26T03:33:33.936Z,50.5
2023-03-26T03:35:17.611Z,50.4
2023-03-26T03:37:01.350Z,50.5
2023-03-26T03:38:45.007Z,50.5
2023-03-26T03:40:28.707Z,50.5
2023-03-26T03:42:12.413Z,50.4
2023-03-26T03:43:56.137Z,50.4
2023-03-26T03:45:39.791Z,50.4
2023-03-26T03:47:23.503Z,50.4
2023-03-26T03:49:07.223Z,50.4
2023-03-26T03:50:50.922Z,50.4
2023-03-26T03:52:34.596Z,50.4
2023-03-26T03:54:18.310Z,50.4
2023-03-26T03:56:02.029Z,50.4
2023-03-26T03:57:45.716Z,50.4
2023-03-26T03:59:29.465Z,50.3
2023-03-26T04:01:13.312Z,50.4
2023-03-26T04:02:56.812Z,50.3
2023-03-26T04:04:40.521Z,50.3
2023-03-26T04:06:24.237Z,50.3
2023-03-26T04:08:07.940Z,50.3
2023-03-26T04:09:51.631Z,50.4
2023-03-26T04:11:35.361Z,50.4
2023-03-26T04:13:19.020Z,50.3
2023-03-26T04:15:02.715Z,50.3
2023-03-26T04:16:46.439Z,50.3
2023-03-26T04:18:30.131Z,50.3
2023-03-26T04:20:13.837Z,50.3
2023-03-26T04:21:57.528Z,50.3
2023-03-26T04:23:41.250Z,50.2
2023-03-26T04:25:24.991Z,50.2
2023-03-26T04:27:08.643Z,50.2
2023-03-26T04:28:52.342Z,50.3
2023-03-26T04:30:36.046Z,50.3
2023-03-26T04:32:19.765Z,50.3
2023-03-26T04:34:03.469Z,50.2
2023-03-26T04:35:47.156Z,50.2
2023-03-26T04:37:30.860Z,50.1
2023-03-26T04:39:14.562Z,50.1
2023-03-26T04:40:58.267Z,50.1
2023-03-26T04:42:41.993Z,50.1
2023-03-26T04:44:25.682Z,50.2
2023-03-26T04:46:09.377Z,50.1
2023-03-26T04:47:53.075Z,50.1
2023-03-26T04:49:36.781Z,50.2
2023-03-26T04:51:20.488Z,50.1
2023-03-26T04:53:04.189Z,50.1
2023-03-26T04:54:47.944Z,50.1
2023-03-26T04:56:31.599Z,50.1
2023-03-26T04:58:15.303Z,50.1
2023-03-26T04:59:58.991Z,50.1
2023-03-26T05:01:42.710Z,50
2023-03-26T05:03:26.423Z,50.1
2023-03-26T05:05:10.094Z,50
2023-03-26T05:06:53.827Z,50.1
2023-03-26T05:08:37.506Z,50
2023-03-26T05:10:21.253Z,50
2023-03-26T05:12:04.902Z,50
2023-03-26T05:13:48.605Z,50
2023-03-26T05:15:32.336Z,50
2023-03-26T05:17:16.010Z,50
2023-03-26T05:18:59.721Z,50
2023-03-26T05:20:43.420Z,50
2023-03-26T05:22:27.130Z,50
2023-03-26T05:24:10.825Z,50
2023-03-26T05:25:54.532Z,50
2023-03-26T05:27:38.249Z,49.9
2023-03-26T05:29:21.924Z,50
2023-03-26T05:31:05.637Z,50
2023-03-26T05:32:49.348Z,50
2023-03-26T05:34:33.083Z,50
2023-03-26T05:36:16.791Z,50.1
2023-03-26T05:38:00.445Z,50
2023-03-26T05:39:44.155Z,49.9
2023-03-26T05:41:27.899Z,49.8
2023-03-26T05:43:11.554Z,49.9
2023-03-26T05:44:55.236Z,50
2023-03-26T05:46:38.946Z,49.9
2023-03-26T05:48:22.665Z,50
2023-03-26T05:50:06.354Z,50
2023-03-26T05:51:50.060Z,50
2023-03-26T05:53:33.747Z,49.9
2023-03-26T05:55:17.451Z,49.9
2023-03-26T05:57:01.144Z,49.9
2023-03-26T05:58:44.847Z,49.9
2023-03-26T06:00:28.595Z,49.9
2023-03-26T06:02:12.320Z,49.9
2023-03-26T06:03:55.952Z,49.9
2023-03-26T06:05:39.651Z,49.8
2023-03-26T06:07:23.354Z,49.9
2023-03-26T06:09:07.048Z,49.8
2023-03-26T06:10:50.740Z,49.9
2023-03-26T06:12:34.467Z,49.9
2023-03-26T06:14:18.228Z,49.9
2023-03-26T06:16:01.875Z,49.9
2023-03-26T06:17:45.570Z,49.8
2023-03-26T06:19:29.259Z,49.8
2023-03-26T06:21:12.965Z,49.8
2023-03-26T06:22:56.694Z,49.8
2023-03-26T06:24:40.360Z,49.9
2023-03-26T06:26:24.064Z,50
2023-03-26T06:28:07.778Z,50
2023-03-26T06:29:51.470Z,49.9
2023-03-26T06:31:35.220Z,49.8
2023-03-26T06:33:18.876Z,49.7
2023-03-26T06:35:02.573Z,49.5
2023-03-26T06:36:46.296Z,49.5
2023-03-26T06:38:29.982Z,49.5
2023-03-26T06:40:13.749Z,49.6
2023-03-26T06:41:57.389Z,49.6
2023-03-26T06:43:41.110Z,49.7
2023-03-26T06:45:24.790Z,49.8
2023-03-26T06:47:08.508Z,49.9
2023-03-26T06:48:52.205Z,50.3
2023-03-26T06:50:35.914Z,50.1
2023-03-26T06:52:19.624Z,50.3
2023-03-26T06:54:03.323Z,50.4
2023-03-26T06:55:47.034Z,50.6
2023-03-26T06:57:30.711Z,50.8
2023-03-26T06:59:14.425Z,51
2023-03-26T07:00:58.129Z,51.1
2023-03-26T07:02:41.849Z,51.1
2023-03-26T07:04:25.557Z,51.3
2023-03-26T07:06:09.377Z,51
2023-03-26T07:07:52.928Z,51.1
2023-03-26T07:09:36.784Z,51.1
2023-03-26T07:11:20.321Z,51.2
2023-03-26T07:13:04.071Z,51.2
2023-03-26T07:14:47.798Z,51.2
2023-03-26T07:16:31.441Z,51.2
2023-03-26T07:18:15.140Z,51.1
2023-03-26T07:19:58.892Z,51.1
2023-03-26T07:21:42.636Z,51.2
2023-03-26T07:23:26.256Z,51.1
2023-03-26T07:25:09.940Z,51
2023-03-26T07:26:53.750Z,50.9
2023-03-26T07:28:37.348Z,50.9
2023-03-26T07:30:21.123Z,50.8
2023-03-26T07:32:04.742Z,50.9
2023-03-26T07:33:48.446Z,50.9
2023-03-26T07:35:32.258Z,50.8
2023-03-26T07:38:59.544Z,50.8
2023-03-26T07:40:43.260Z,50.8
2023-03-26T07:42:26.950Z,50.7
2023-03-26T07:44:10.650Z,50.8
2023-03-26T07:45:54.413Z,50.8
2023-03-26T07:47:38.096Z,50.7
2023-03-26T07:49:21.801Z,50.8
2023-03-26T07:51:05.445Z,50.7
2023-03-26T07:52:49.150Z,50.6
2023-03-26T07:54:32.921Z,50.6
2023-03-26T07:56:16.561Z,50.6
2023-03-26T07:59:43.948Z,50.6
2023-03-26T08:01:27.668Z,50.6
2023-03-26T08:04:55.072Z,50.6
2023-03-26T08:06:38.763Z,50.5
2023-03-26T08:08:22.451Z,50.5
2023-03-26T08:10:06.178Z,50.5
2023-03-26T08:11:49.873Z,50.5
2023-03-26T08:13:33.562Z,50.5
2023-03-26T08:15:17.250Z,50.5
2023-03-26T08:17:00.974Z,50.5
2023-03-26T08:18:44.683Z,50.5
2023-03-26T08:20:28.460Z,50.4
2023-03-26T08:22:12.050Z,50.4
2023-03-26T08:23:55.756Z,50.5
2023-03-26T08:25:39.487Z,50.5
2023-03-26T08:27:23.243Z,50.4
2023-03-26T08:29:06.860Z,50.4
2023-03-26T08:30:50.660Z,50.4
2023-03-26T08:32:34.274Z,50.4
2023-03-26T08:34:18.085Z,50.4
2023-03-26T08:36:01.777Z,50.4
2023-03-26T08:37:45.397Z,50.3
2023-03-26T08:39:29.076Z,50.3
2023-03-26T08:41:12.784Z,50.3
2023-03-26T08:42:56.545Z,50.2
2023-03-26T08:44:40.250Z,50.3
2023-03-26T08:46:23.876Z,50.4
2023-03-26T08:48:07.640Z,50.3
2023-03-26T08:49:51.310Z,50.4
2023-03-26T08:51:34.978Z,50.4
2023-03-26T08:53:18.698Z,50.5
2023-03-26T08:55:02.380Z,50.4
2023-03-26T08:56:46.098Z,50.4
2023-03-26T08:58:29.790Z,50.5
2023-03-26T09:00:13.531Z,50.6
2023-03-26T09:01:57.189Z,50.6
2023-03-26T09:03:41.033Z,50.5
2023-03-26T09:05:24.704Z,50.5
2023-03-26T09:07:08.405Z,50.5
2023-03-26T09:08:52.019Z,50.5
2023-03-26T09:10:35.726Z,50.4
2023-03-26T09:12:19.418Z,50.5
2023-03-26T09:14:03.246Z,50.4
2023-03-26T09:15:46.855Z,50.4
2023-03-26T09:17:30.579Z,50.3
2023-03-26T09:19:14.273Z,50.3
2023-03-26T09:20:57.961Z,50.1
2023-03-26T09:22:41.637Z,50
2023-03-26T09:24:25.385Z,49.9
2023-03-26T09:26:09.057Z,49.7
2023-03-26T09:27:52.745Z,49.6
2023-03-26T09:29:36.433Z,49.4
2023-03-26T09:31:20.164Z,49.4
2023-03-26T09:33:03.855Z,49.5
2023-03-26T09:34:47.557Z,49.4
2023-03-26T09:36:31.250Z,49.2
2023-03-26T09:38:14.961Z,49.2
2023-03-26T09:39:58.666Z,49.2
2023-03-26T09:41:42.402Z,49.4
2023-03-26T09:43:26.047Z,49.4
2023-03-26T09:45:09.777Z,49.5
2023-03-26T09:46:53.457Z,49.6
2023-03-26T09:48:37.177Z,49.7
2023-03-26T09:50:20.845Z,49.6
2023-03-26T09:52:04.586Z,49.6
2023-03-26T09:53:48.255Z,49.6
2023-03-26T09:55:31.977Z,49.4
2023-03-26T09:57:15.858Z,49.1
2023-03-26T09:58:59.379Z,49
2023-03-26T10:02:26.800Z,48.9
2023-03-26T10:04:10.706Z,48.8
2023-03-26T10:05:54.251Z,48.5
2023-03-26T10:07:37.981Z,48.2
2023-03-26T10:09:21.762Z,48.1
2023-03-26T10:11:05.556Z,48
2023-03-26T10:12:49.091Z,48.2
2023-03-26T10:14:32.750Z,48.2
2023-03-26T10:18:00.123Z,48.2
2023-03-26T10:19:43.799Z,48.1
2023-03-26T10:21:27.534Z,47.9
2023-03-26T10:24:54.924Z,47.8
2023-03-26T10:26:38.630Z,47.7
2023-03-26T10:28:22.344Z,47.6
2023-03-26T10:30:06.019Z,47.6
2023-03-26T10:31:49.714Z,47.6
2023-03-26T10:33:33.418Z,47.6
2023-03-26T10:35:17.136Z,47.7
2023-03-26T10:37:00.820Z,47.9
2023-03-26T10:38:44.515Z,48
2023-03-26T10:40:28.227Z,48.2
2023-03-26T10:42:11.938Z,48.5
2023-03-26T10:43:55.630Z,48.6
2023-03-26T10:45:39.398Z,48.9
2023-03-26T10:47:23.062Z,49
2023-03-26T10:49:06.795Z,49.2
2023-03-26T10:50:50.440Z,49.5
2023-03-26T10:52:34.157Z,49.7
2023-03-26T10:54:17.856Z,49.7
2023-03-26T10:56:01.561Z,49.6
2023-03-26T10:57:45.261Z,49.5
2023-03-26T10:59:28.966Z,49.6
2023-03-26T11:01:12.659Z,49.8
2023-03-26T11:02:56.378Z,49.9
2023-03-26T11:04:40.061Z,50
2023-03-26T11:06:23.760Z,49.9
2023-03-26T11:08:07.511Z,49.9
2023-03-26T11:09:51.190Z,49.7
2023-03-26T11:11:34.857Z,49.8
2023-03-26T11:13:18.582Z,49.7
2023-03-26T11:15:02.281Z,49.9
2023-03-26T11:16:45.996Z,50
2023-03-26T11:18:29.756Z,50.2
2023-03-26T11:20:13.507Z,50.1
2023-03-26T11:21:57.147Z,50.3
2023-03-26T11:23:40.827Z,50.4
2023-03-26T11:25:24.495Z,50.2
2023-03-26T11:27:08.218Z,50.6
2023-03-26T11:28:51.993Z,51.1
2023-03-26T11:30:35.770Z,51.4
2023-03-26T11:32:19.484Z,51.2
2023-03-26T11:34:03.064Z,50.7
2023-03-26T11:35:46.746Z,50.5
2023-03-26T11:37:30.388Z,50.8
2023-03-26T11:39:14.099Z,50.9
2023-03-26T11:40:57.988Z,51.2
2023-03-26T11:42:41.516Z,51.5
2023-03-26T11:44:25.210Z,51.9
2023-03-26T11:46:08.912Z,52.1
2023-03-26T11:47:52.623Z,51.9
2023-03-26T11:49:36.298Z,52
2023-03-26T11:51:20.051Z,52.2
2023-03-26T11:53:03.716Z,52.3
2023-03-26T11:54:47.429Z,52.3
2023-03-26T11:56:31.111Z,51.9
2023-03-26T11:58:14.801Z,51.6
2023-03-26T11:59:58.532Z,51.6
2023-03-26T12:01:42.221Z,51.7
2023-03-26T12:03:25.928Z,51.6
2023-03-26T12:05:09.608Z,52.2
2023-03-26T12:06:53.393Z,53.5
2023-03-26T12:08:37.013Z,53.9
2023-03-26T12:10:20.716Z,53.8
2023-03-26T12:12:04.418Z,53.8
2023-03-26T12:13:48.127Z,53.5
2023-03-26T12:15:31.934Z,53
2023-03-26T12:17:15.515Z,53
2023-03-26T12:18:59.227Z,53.2
2023-03-26T12:20:42.930Z,53.2
2023-03-26T12:22:26.641Z,53.3
2023-03-26T12:24:10.338Z,53.4
2023-03-26T12:25:54.052Z,53.5
2023-03-26T12:27:37.771Z,53.4
2023-03-26T12:29:21.442Z,53.5
2023-03-26T12:31:05.153Z,53.4
2023-03-26T12:32:48.921Z,53.6
2023-03-26T12:34:32.559Z,53.8
2023-03-26T12:36:16.238Z,54.1
2023-03-26T12:38:00.077Z,54.4
2023-03-26T12:39:43.683Z,54.6
2023-03-26T12:41:27.361Z,54.8
2023-03-26T12:43:51.387Z,54.7
2023-03-26T12:44:54.942Z,54.6
2023-03-26T12:46:38.440Z,54.5
2023-03-26T12:48:22.166Z,54.4
2023-03-26T12:50:05.865Z,54.5
2023-03-26T12:51:49.578Z,54.4
2023-03-26T12:53:33.250Z,54.1
2023-03-26T12:55:16.952Z,54.1
2023-03-26T12:57:00.663Z,53.1
2023-03-26T12:58:44.575Z,51.7
2023-03-26T13:00:28.184Z,51.9
2023-03-26T13:02:11.897Z,52.2
2023-03-26T13:03:55.465Z,51.9
2023-03-26T13:05:39.182Z,52.1
2023-03-26T13:07:22.920Z,52.2
2023-03-26T13:09:06.574Z,52.2
2023-03-26T13:10:50.473Z,52.2
2023-03-26T13:12:33.997Z,52.1
2023-03-26T13:14:17.682Z,52.3
2023-03-26T13:16:01.375Z,52.1
2023-03-26T13:17:45.075Z,51.9
2023-03-26T13:19:28.836Z,51.7
2023-03-26T13:21:12.527Z,51.7
2023-03-26T13:22:56.228Z,51.9
2023-03-26T13:24:39.925Z,51.8
2023-03-26T13:26:23.650Z,52.1
2023-03-26T13:28:07.313Z,52.1
2023-03-26T13:29:51.045Z,52.2
2023-03-26T13:31:34.723Z,52.2
2023-03-26T13:33:18.476Z,52
2023-03-26T13:35:02.123Z,51.8
2023-03-26T13:36:45.827Z,51.4
2023-03-26T13:38:29.494Z,50.9
2023-03-26T13:40:13.258Z,50.7
2023-03-26T13:41:56.904Z,50.4
2023-03-26T13:43:40.598Z,50.4
2023-03-26T13:45:24.326Z,50.5
2023-03-26T13:47:08.036Z,50.6
2023-03-26T13:48:51.712Z,50.5
2023-03-26T13:50:35.413Z,50.6
2023-03-26T13:52:19.148Z,50.4
2023-03-26T13:54:02.812Z,50.6
2023-03-26T13:55:46.494Z,50.6
2023-03-26T13:57:30.210Z,50.6
2023-03-26T13:59:13.912Z,50.8
2023-03-26T14:00:57.629Z,50.8
2023-03-26T14:02:41.328Z,50.8
2023-03-26T14:04:25.019Z,50.9
2023-03-26T14:06:08.732Z,50.7
2023-03-26T14:07:52.416Z,50.6
2023-03-26T14:09:36.135Z,50.5
2023-03-26T14:11:19.837Z,50.6
2023-03-26T14:13:03.533Z,50.9
2023-03-26T14:14:47.282Z,51
2023-03-26T14:16:30.973Z,50.9
2023-03-26T14:18:14.712Z,51.2
2023-03-26T14:19:58.351Z,51.5
2023-03-26T14:21:42.114Z,52.3
2023-03-26T14:23:25.802Z,53.6
2023-03-26T14:25:09.536Z,54.7
2023-03-26T14:26:53.198Z,55.6
2023-03-26T14:28:36.829Z,55
2023-03-26T14:30:20.535Z,54.8
2023-03-26T14:32:04.229Z,54.6
2023-03-26T14:33:47.927Z,54.4
2023-03-26T14:35:31.719Z,54.2
2023-03-26T14:37:15.348Z,54.5
2023-03-26T14:38:59.066Z,54.7
2023-03-26T14:40:42.740Z,54.8
2023-03-26T14:42:26.452Z,55.1
2023-03-26T14:44:10.162Z,55.1
2023-03-26T14:45:53.842Z,55.1
2023-03-26T14:47:37.553Z,55.1
2023-03-26T14:49:21.251Z,55.3
2023-03-26T14:51:04.971Z,55.6
2023-03-26T14:52:48.672Z,56
2023-03-26T14:54:32.364Z,56
2023-03-26T14:56:16.070Z,56.1
2023-03-26T14:57:59.777Z,56
2023-03-26T14:59:43.493Z,56.3
2023-03-26T15:03:10.871Z,56.4
2023-03-26T15:04:54.600Z,56.6
2023-03-26T15:06:38.301Z,56.7
2023-03-26T15:08:22.000Z,56.8
2023-03-26T15:10:05.671Z,56.9
2023-03-26T15:11:49.402Z,56.8
2023-03-26T15:13:33.107Z,56.9
2023-03-26T15:15:16.785Z,56.9
2023-03-26T15:17:00.494Z,56.7
2023-03-26T15:18:44.216Z,56.6
2023-03-26T15:20:27.907Z,56.4
2023-03-26T15:22:11.616Z,56.5
2023-03-26T15:23:55.415Z,56.7
2023-03-26T15:25:39.035Z,56.6
2023-03-26T15:27:22.752Z,56.7
2023-03-26T15:29:06.440Z,56.5
2023-03-26T15:30:50.152Z,56.4
2023-03-26T15:32:33.818Z,56.3
2023-03-26T15:34:17.542Z,56.2
2023-03-26T15:36:01.277Z,55.5
2023-03-26T15:37:44.943Z,55.5
2023-03-26T15:39:28.657Z,56.2
2023-03-26T15:41:12.344Z,56.4
2023-03-26T15:42:56.054Z,56.5
2023-03-26T15:44:39.774Z,56.5
2023-03-26T15:46:23.473Z,56.3
2023-03-26T15:48:07.139Z,56.5
2023-03-26T15:49:50.879Z,56.5
2023-03-26T15:51:34.571Z,56.5
2023-03-26T15:53:22.347Z,56.8
2023-03-26T15:55:06.051Z,56.7
2023-03-26T15:56:49.750Z,56.8
2023-03-26T15:58:33.442Z,57
2023-03-26T16:00:17.180Z,56.7
2023-03-26T16:02:00.874Z,56.6
2023-03-26T16:03:44.574Z,56.9
2023-03-26T16:05:28.294Z,56.9
2023-03-26T16:07:11.977Z,56
2023-03-26T16:08:55.685Z,55.8
2023-03-26T16:10:39.398Z,55.3
2023-03-26T16:12:23.062Z,55.3
2023-03-26T16:14:06.771Z,55.4
2023-03-26T16:15:50.482Z,55.2
2023-03-26T16:17:34.198Z,55.1
2023-03-26T16:19:17.890Z,55.1
2023-03-26T16:21:01.591Z,55.2
2023-03-26T16:22:45.294Z,55.3
2023-03-26T16:24:29.096Z,55.3
2023-03-26T16:26:12.709Z,55.3
2023-03-26T16:27:56.407Z,55.3
2023-03-26T16:29:40.086Z,55.2
2023-03-26T16:31:23.811Z,55.2
2023-03-26T16:33:07.503Z,55.2
2023-03-26T16:34:51.216Z,55.2
2023-03-26T16:36:34.929Z,55.2
2023-03-26T16:38:18.637Z,55.1
2023-03-26T16:40:02.334Z,55.1
2023-03-26T16:41:46.020Z,55.1
2023-03-26T16:43:29.722Z,55.1
2023-03-26T16:45:13.412Z,55.1
2023-03-26T16:46:57.124Z,55.1
2023-03-26T16:48:40.828Z,55.2
2023-03-26T16:50:24.509Z,55.2
2023-03-26T16:52:08.228Z,55.3
2023-03-26T16:53:51.942Z,55.5
2023-03-26T16:55:35.649Z,55.6
2023-03-26T16:57:19.393Z,55.7
2023-03-26T16:59:03.061Z,55.8
2023-03-26T17:00:46.793Z,55.9
2023-03-26T17:02:30.454Z,56.1
2023-03-26T17:04:14.150Z,56.2
2023-03-26T17:05:57.837Z,56.4
2023-03-26T17:07:41.558Z,56.5
2023-03-26T17:09:25.265Z,56.5
2023-03-26T17:11:08.978Z,56.6
2023-03-26T17:12:52.649Z,56.6
2023-03-26T17:14:36.355Z,56.6
2023-03-26T17:16:20.066Z,56.7
2023-03-26T17:18:03.758Z,56.7
2023-03-26T17:19:47.464Z,56.7
2023-03-26T17:21:31.169Z,56.8
2023-03-26T17:23:14.865Z,56.7
2023-03-26T17:24:58.603Z,56.8
2023-03-26T17:26:42.301Z,56.8
2023-03-26T17:28:25.992Z,56.8
2023-03-26T17:30:09.662Z,56.9
2023-03-26T17:31:53.374Z,56.8
2023-03-26T17:33:37.071Z,56.9
2023-03-26T17:35:20.791Z,56.9
2023-03-26T17:37:04.481Z,56.9
2023-03-26T17:38:48.185Z,56.8
2023-03-26T17:40:31.892Z,56.9
2023-03-26T17:42:15.619Z,56.9
2023-03-26T17:43:59.299Z,56.9
2023-03-26T17:45:43.003Z,56.9
2023-03-26T17:47:26.704Z,56.9
2023-03-26T17:49:10.399Z,56.8
2023-03-26T17:50:54.128Z,56.8
2023-03-26T17:52:37.816Z,56.8
2023-03-26T17:54:21.525Z,56.8
2023-03-26T17:56:05.399Z,56.8
2023-03-26T17:57:48.936Z,56.9
2023-03-26T17:59:32.619Z,56.9
2023-03-26T18:01:16.336Z,57.5
2023-03-26T18:03:00.050Z,57.4
2023-03-26T18:04:43.776Z,57.5
2023-03-26T18:06:27.424Z,57.5
2023-03-26T18:08:11.130Z,57.5
2023-03-26T18:09:54.829Z,57.5
2023-03-26T18:11:38.530Z,57.4
2023-03-26T18:13:22.229Z,57.4
2023-03-26T18:15:05.936Z,57.5
2023-03-26T18:16:49.632Z,57.4
2023-03-26T18:18:33.347Z,57.4
2023-03-26T18:20:17.020Z,57.4
2023-03-26T18:22:00.750Z,57.4
2023-03-26T18:23:44.464Z,57.3
2023-03-26T18:25:28.146Z,57.2
2023-03-26T18:27:11.841Z,57.1
2023-03-26T18:28:55.543Z,57.1
2023-03-26T18:30:39.262Z,57.1
2023-03-26T18:32:22.953Z,57
2023-03-26T18:34:06.653Z,57
2023-03-26T18:35:50.366Z,57
2023-03-26T18:37:34.060Z,57
2023-03-26T18:39:17.764Z,56.9
2023-03-26T18:41:01.454Z,56.8
2023-03-26T18:42:45.164Z,56.8
2023-03-26T18:44:28.868Z,56.7
2023-03-26T18:46:12.593Z,56.7
2023-03-26T18:47:56.266Z,56.6
2023-03-26T18:49:39.970Z,56.6
2023-03-26T18:51:23.681Z,56.6
2023-03-26T18:53:07.369Z,56.5
2023-03-26T18:54:51.059Z,56.5
2023-03-26T18:56:34.779Z,56.4
2023-03-26T18:58:18.473Z,56.4
2023-03-26T19:00:02.179Z,56.4
2023-03-26T19:01:45.936Z,56.4
2023-03-26T19:03:29.589Z,56.3
2023-03-26T19:05:13.298Z,56.3
2023-03-26T19:06:56.992Z,56.2
2023-03-26T19:08:40.736Z,56.2
2023-03-26T19:10:24.396Z,56.1
2023-03-26T19:12:08.092Z,56.2
2023-03-26T19:13:51.938Z,55.9
2023-03-26T19:15:35.495Z,55.9
2023-03-26T19:17:19.195Z,55.9
2023-03-26T19:19:02.895Z,55.8
2023-03-26T19:20:46.638Z,55.8
2023-03-26T19:22:30.314Z,55.8
2023-03-26T19:24:14.004Z,55.8
2023-03-26T19:25:57.695Z,55.7
2023-03-26T19:27:41.394Z,55.8
2023-03-26T19:29:25.099Z,55.7
2023-03-26T19:31:08.828Z,55.7
2023-03-26T19:32:52.525Z,55.6
2023-03-26T19:34:36.215Z,55.7
2023-03-26T19:36:19.922Z,55.6
2023-03-26T19:38:03.627Z,55.6
2023-03-26T19:39:47.311Z,55.5
2023-03-26T19:41:31.234Z,55.5
2023-03-26T19:43:14.917Z,55.5
2023-03-26T19:44:58.582Z,55.4
2023-03-26T19:46:42.293Z,55.4
2023-03-26T19:48:25.933Z,55.4
2023-03-26T19:50:09.738Z,55.4
2023-03-26T19:51:53.383Z,55.3
2023-03-26T19:53:37.088Z,55.3
2023-03-26T19:55:20.809Z,55.3
2023-03-26T19:57:04.423Z,55.3
2023-03-26T19:58:48.255Z,55.3
2023-03-26T20:00:31.751Z,55.4
2023-03-26T20:02:15.539Z,55.2
2023-03-26T20:03:59.376Z,55
2023-03-26T20:05:43.057Z,55
2023-03-26T20:07:26.679Z,54.9
2023-03-26T20:09:10.399Z,55
2023-03-26T20:10:53.966Z,55
2023-03-26T20:12:37.878Z,55
2023-03-26T20:14:21.574Z,55.1
2023-03-26T20:16:05.094Z,55
2023-03-26T20:17:49.037Z,55
2023-03-26T20:19:32.481Z,55
2023-03-26T20:21:16.364Z,55
2023-03-26T20:23:00.049Z,55
2023-03-26T20:24:43.850Z,55
2023-03-26T20:26:27.402Z,55
2023-03-26T20:28:11.153Z,55
2023-03-26T20:29:54.705Z,54.9
2023-03-26T20:31:38.397Z,54.9
2023-03-26T20:33:22.257Z,54.9
2023-03-26T20:35:05.785Z,54.9
2023-03-26T20:36:49.503Z,54.9
2023-03-26T20:38:33.220Z,54.9
2023-03-26T20:40:16.911Z,54.9
2023-03-26T20:42:00.744Z,54.9
2023-03-26T20:43:44.307Z,54.9
2023-03-26T20:45:27.989Z,54.9
2023-03-26T20:47:11.773Z,55
2023-03-26T20:48:55.404Z,55
2023-03-26T20:50:39.112Z,55
2023-03-26T20:52:22.973Z,55
2023-03-26T20:54:06.676Z,54.8
2023-03-26T20:55:50.282Z,54.8
2023-03-26T20:57:33.915Z,54.8
2023-03-26T20:59:17.602Z,54.8
2023-03-26T21:02:45.006Z,54.6
2023-03-26T21:04:28.787Z,54.6
2023-03-26T21:06:12.420Z,54.6
2023-03-26T21:07:56.123Z,54.5
2023-03-26T21:09:39.877Z,54.5
2023-03-26T21:11:23.505Z,54.4
2023-03-26T21:13:07.227Z,54.4
2023-03-26T21:14:51.018Z,54.4
2023-03-26T21:16:34.632Z,54.3
2023-03-26T21:18:18.339Z,54.3
2023-03-26T21:20:02.046Z,54.3
2023-03-26T21:21:45.742Z,54.2
2023-03-26T21:23:29.451Z,54.3
2023-03-26T21:25:13.138Z,54.3
2023-03-26T21:26:56.896Z,54.3
2023-03-26T21:28:40.589Z,54.2
2023-03-26T21:30:24.249Z,54.1
2023-03-26T21:32:08.010Z,53.8
2023-03-26T21:33:51.800Z,53.9
2023-03-26T21:35:35.345Z,53.9
2023-03-26T21:37:19.053Z,54
2023-03-26T21:39:02.799Z,53.9
2023-03-26T21:40:46.464Z,53.9
2023-03-26T21:42:30.153Z,53.9
2023-03-26T21:44:13.910Z,53.9
2023-03-26T21:45:57.572Z,53.8
2023-03-26T21:47:41.255Z,53.8
2023-03-26T21:49:24.968Z,53.8
2023-03-26T21:51:08.673Z,53.8
2023-03-26T21:52:52.359Z,53.8
2023-03-26T21:54:36.078Z,53.9
2023-03-26T21:56:19.769Z,53.8
2023-03-26T21:58:03.490Z,53.8
2023-03-26T21:59:47.221Z,53.8
2023-03-26T22:01:30.996Z,53.8
2023-03-26T22:03:14.641Z,53.8
2023-03-26T22:04:58.278Z,53.6
2023-03-26T22:06:41.981Z,53.6
2023-03-26T22:08:25.686Z,53.7
2023-03-26T22:10:09.375Z,53.6
2023-03-26T22:11:53.138Z,53.6
2023-03-26T22:13:36.775Z,53.6
2023-03-26T22:15:20.497Z,53.6
2023-03-26T22:17:04.232Z,53.5
2023-03-26T22:18:47.893Z,53.5
2023-03-26T22:20:31.616Z,53.5
2023-03-26T22:22:15.301Z,53.5
2023-03-26T22:23:59.038Z,53.4
2023-03-26T22:25:42.716Z,53.4
2023-03-26T22:27:26.435Z,53.4
2023-03-26T22:29:10.208Z,53.3
2023-03-26T22:30:53.831Z,53.3
2023-03-26T22:32:37.537Z,53.3
2023-03-26T22:34:21.231Z,53.3
2023-03-26T22:36:04.924Z,53.3
2023-03-26T22:37:48.640Z,53.3
2023-03-26T22:39:32.345Z,53.2
2023-03-26T22:41:16.046Z,53.2
2023-03-26T22:42:59.746Z,53.2
2023-03-26T22:44:43.433Z,53.2
2023-03-26T22:46:27.143Z,53.1
2023-03-26T22:48:10.927Z,53.1
2023-03-26T22:49:54.542Z,53.2
2023-03-26T22:51:38.234Z,53.1
2023-03-26T22:53:21.946Z,53
2023-03-26T22:55:05.660Z,53
2023-03-26T22:56:49.346Z,53.1
2023-03-26T23:00:16.771Z,53.1
2023-03-26T23:02:00.462Z,53
2023-03-26T23:03:44.150Z,53.1
2023-03-26T23:05:27.857Z,53
2023-03-26T23:07:11.563Z,53
2023-03-26T23:08:55.277Z,52.9
2023-03-26T23:10:38.937Z,52.9
2023-03-26T23:12:22.669Z,52.9
2023-03-26T23:14:06.364Z,52.9
2023-03-26T23:15:50.095Z,52.8
2023-03-26T23:17:33.763Z,52.9
2023-03-26T23:19:17.522Z,52.9
2023-03-26T23:21:01.180Z,52.8
2023-03-26T23:22:44.871Z,52.8
2023-03-26T23:24:28.567Z,52.8
2023-03-26T23:26:12.252Z,52.8
2023-03-26T23:27:55.971Z,52.7